Time;durP1;ratioP1;P1;durP2;ratioP2;P2;SDS_P1;SDS_P2;PMS_P1;PMS_P2;Temp;Humidity;BMP_temperature;BMP_pressure;BME280_temperature;BME280_humidity;BME280_pressure;Samples;Min_cycle;Max_cycle;Signal;HPM_P1;HPM_P2
2023/08/21 00:00:15;;;;;;;21.20;19.60;;;;;;;;;;5076965;28;20444;-82
2023/08/21 00:02:43;;;;;;;21.20;19.90;;;;;;;;;;5077996;28;20449;-81
2023/08/21 00:05:10;;;;;;;22.17;20.57;;;;;;;;;;5078171;28;20442;-82
2023/08/21 00:07:37;;;;;;;22.10;20.73;;;;;;;;;;5077811;28;20780;-83
2023/08/21 00:10:05;;;;;;;22.30;20.73;;;;;;;;;;5077173;28;20431;-83
2023/08/21 00:12:32;;;;;;;22.03;20.73;;;;;;;;;;5077273;28;20436;-81
2023/08/21 00:14:59;;;;;;;21.03;19.80;;;;;;;;;;5077304;28;20445;-81
2023/08/21 00:17:26;;;;;;;21.97;20.67;;;;;;;;;;5076912;28;20429;-83
2023/08/21 00:19:54;;;;;;;22.50;21.00;;;;;;;;;;5076961;28;20956;-83
2023/08/21 00:22:21;;;;;;;22.60;21.10;;;;;;;;;;5077382;28;20429;-81
2023/08/21 00:24:48;;;;;;;21.93;20.53;;;;;;;;;;5077551;28;20413;-81
2023/08/21 00:27:15;;;;;;;22.40;21.10;;;;;;;;;;5077539;28;20416;-82
2023/08/21 00:29:42;;;;;;;21.80;20.40;;;;;;;;;;5077328;28;20459;-82
2023/08/21 00:32:11;;;;;;;21.77;20.23;;;;;;;;;;5077153;28;20474;-81
2023/08/21 00:34:39;;;;;;;22.10;20.70;;;;;;;;;;5077544;28;20450;-83
2023/08/21 00:37:07;;;;;;;22.07;20.77;;;;;;;;;;5077618;28;20442;-82
2023/08/21 00:39:34;;;;;;;21.57;20.07;;;;;;;;;;5077929;28;20450;-81
2023/08/21 00:42:01;;;;;;;22.67;21.00;;;;;;;;;;5094014;28;20447;-83
2023/08/21 00:44:28;;;;;;;22.60;21.00;;;;;;;;;;5090557;28;20452;-81
2023/08/21 00:46:55;;;;;;;21.70;19.93;;;;;;;;;;5094034;28;20444;-81
2023/08/21 00:49:22;;;;;;;21.50;20.10;;;;;;;;;;5094853;28;20459;-83
2023/08/21 00:51:50;;;;;;;22.07;20.50;;;;;;;;;;5095376;28;20423;-82
2023/08/21 00:54:18;;;;;;;21.50;20.10;;;;;;;;;;5095868;28;20911;-81
2023/08/21 00:56:46;;;;;;;21.90;20.60;;;;;;;;;;5079850;28;20416;-82
2023/08/21 00:59:13;;;;;;;21.93;20.27;;;;;;;;;;5076248;28;20442;-82
2023/08/21 01:01:40;;;;;;;21.53;20.23;;;;;;;;;;5075687;28;20457;-82
2023/08/21 01:04:08;;;;;;;21.20;19.90;;;;;;;;;;5076767;28;20428;-83
2023/08/21 01:06:35;;;;;;;21.70;20.30;;;;;;;;;;5077835;28;20460;-81
2023/08/21 01:09:05;;;;;;;21.67;20.37;;;;;;;;;;5077715;28;20464;-82
2023/08/21 01:11:37;;;;;;;21.20;20.00;;;;;;;;;;5076878;28;20430;-82
2023/08/21 01:14:08;;;;;;;20.70;19.57;;;;;;;;;;5077418;28;20408;-83
2023/08/21 01:16:35;;;;;;;21.57;20.17;;;;;;;;;;5077278;28;20456;-81
2023/08/21 01:19:03;;;;;;;20.90;19.50;;;;;;;;;;5077499;28;21027;-81
2023/08/21 01:21:30;;;;;;;21.27;19.97;;;;;;;;;;5076791;28;20541;-82
2023/08/21 01:23:58;;;;;;;20.63;19.43;;;;;;;;;;5077299;28;20444;-82
2023/08/21 01:26:25;;;;;;;21.03;19.63;;;;;;;;;;5076635;28;20449;-82
2023/08/21 01:28:53;;;;;;;20.60;19.33;;;;;;;;;;5078145;28;20516;-82
2023/08/21 01:31:21;;;;;;;20.40;19.17;;;;;;;;;;5080091;28;20448;-82
2023/08/21 01:33:49;;;;;;;22.00;20.53;;;;;;;;;;5080707;28;20476;-82
2023/08/21 01:36:17;;;;;;;21.77;20.27;;;;;;;;;;5080696;28;20441;-82
2023/08/21 01:38:44;;;;;;;21.40;19.90;;;;;;;;;;5080581;28;20449;-82
2023/08/21 01:41:13;;;;;;;20.60;19.37;;;;;;;;;;5080602;28;20864;-82
2023/08/21 01:43:40;;;;;;;20.83;19.43;;;;;;;;;;5080708;28;20469;-79
2023/08/21 01:46:07;;;;;;;21.37;19.97;;;;;;;;;;5080087;28;20820;-81
2023/08/21 01:48:34;;;;;;;19.93;18.73;;;;;;;;;;5080249;28;20473;-81
2023/08/21 01:51:02;;;;;;;20.57;19.47;;;;;;;;;;5079791;28;20519;-81
2023/08/21 01:53:29;;;;;;;20.27;19.13;;;;;;;;;;5080114;28;20518;-81
2023/08/21 01:55:56;;;;;;;20.33;19.03;;;;;;;;;;5080383;28;20481;-82
2023/08/21 01:58:25;;;;;;;20.67;19.37;;;;;;;;;;5080681;28;20499;-82
2023/08/21 02:00:52;;;;;;;20.90;19.50;;;;;;;;;;5079710;28;20842;-81
2023/08/21 02:03:19;;;;;;;20.70;19.30;;;;;;;;;;5080121;28;20477;-81
2023/08/21 02:05:46;;;;;;;21.27;19.70;;;;;;;;;;5080334;28;20445;-82
2023/08/21 02:08:14;;;;;;;21.40;20.00;;;;;;;;;;5080509;28;20446;-81
2023/08/21 02:10:48;;;;;;;20.97;19.57;;;;;;;;;;5079645;28;20457;-81
2023/08/21 02:13:15;;;;;;;20.53;19.33;;;;;;;;;;5080336;28;20466;-82
2023/08/21 02:15:44;;;;;;;20.23;19.03;;;;;;;;;;5079564;28;20449;-81
2023/08/21 02:18:11;;;;;;;20.73;19.40;;;;;;;;;;5079967;28;20450;-82
2023/08/21 02:20:38;;;;;;;20.77;19.37;;;;;;;;;;5079432;28;20412;-82
2023/08/21 02:23:05;;;;;;;20.40;19.23;;;;;;;;;;5079192;28;20436;-82
2023/08/21 02:25:33;;;;;;;20.40;19.30;;;;;;;;;;5079483;28;20437;-81
2023/08/21 02:28:01;;;;;;;21.10;19.63;;;;;;;;;;5079963;28;20425;-82
2023/08/21 02:30:29;;;;;;;20.30;19.10;;;;;;;;;;5079119;28;20983;-82
2023/08/21 02:32:57;;;;;;;19.90;18.70;;;;;;;;;;5079713;28;20469;-81
2023/08/21 02:35:24;;;;;;;19.43;18.33;;;;;;;;;;5079973;28;20427;-82
2023/08/21 02:37:51;;;;;;;20.13;18.93;;;;;;;;;;5079630;28;20428;-80
2023/08/21 02:40:18;;;;;;;20.40;18.97;;;;;;;;;;5082835;28;20453;-82
2023/08/21 02:42:45;;;;;;;20.57;19.07;;;;;;;;;;5099300;28;20469;-81
2023/08/21 02:45:12;;;;;;;20.27;19.07;;;;;;;;;;5099358;28;20923;-81
2023/08/21 02:47:40;;;;;;;20.07;18.97;;;;;;;;;;5099252;28;20441;-81
2023/08/21 02:50:10;;;;;;;20.90;19.60;;;;;;;;;;5098773;28;20914;-82
2023/08/21 02:52:37;;;;;;;20.00;18.80;;;;;;;;;;5098956;28;20466;-82
2023/08/21 02:55:04;;;;;;;20.87;19.53;;;;;;;;;;5099964;28;20448;-81
2023/08/21 02:57:32;;;;;;;20.57;19.30;;;;;;;;;;5099594;28;21184;-82
2023/08/21 02:59:59;;;;;;;20.57;19.27;;;;;;;;;;5098559;28;20452;-82
2023/08/21 03:02:26;;;;;;;20.93;19.70;;;;;;;;;;5099093;28;20460;-83
2023/08/21 03:04:53;;;;;;;20.27;18.97;;;;;;;;;;5099622;28;20456;-81
2023/08/21 03:07:21;;;;;;;20.93;19.43;;;;;;;;;;5099249;28;20441;-81
2023/08/21 03:09:48;;;;;;;20.30;19.00;;;;;;;;;;5098662;28;20879;-81
2023/08/21 03:12:16;;;;;;;20.07;18.80;;;;;;;;;;5099335;28;20446;-83
2023/08/21 03:14:43;;;;;;;21.20;19.47;;;;;;;;;;5098771;28;20898;-83
2023/08/21 03:17:10;;;;;;;20.57;19.27;;;;;;;;;;5099266;28;20435;-81
2023/08/21 03:19:37;;;;;;;20.70;19.40;;;;;;;;;;5098722;28;20452;-82
2023/08/21 03:22:04;;;;;;;20.20;18.87;;;;;;;;;;5098656;28;20464;-82
2023/08/21 03:24:33;;;;;;;19.83;18.63;;;;;;;;;;5098749;28;20548;-82
2023/08/21 03:27:00;;;;;;;19.77;18.47;;;;;;;;;;5098720;28;20948;-82
2023/08/21 03:29:27;;;;;;;20.50;19.10;;;;;;;;;;5098236;28;20481;-83
2023/08/21 03:31:55;;;;;;;20.33;19.03;;;;;;;;;;5097734;28;20445;-81
2023/08/21 03:34:22;;;;;;;20.80;19.50;;;;;;;;;;5098495;28;20452;-81
2023/08/21 03:36:49;;;;;;;20.00;18.80;;;;;;;;;;5099316;28;20407;-81
2023/08/21 03:39:16;;;;;;;20.50;19.40;;;;;;;;;;5098742;28;20446;-81
2023/08/21 03:41:44;;;;;;;20.77;19.37;;;;;;;;;;5098398;28;20424;-83
2023/08/21 03:44:11;;;;;;;20.80;19.50;;;;;;;;;;5099234;28;20416;-83
2023/08/21 03:46:38;;;;;;;21.30;19.90;;;;;;;;;;5098779;28;21050;-81
2023/08/21 03:49:05;;;;;;;21.30;20.10;;;;;;;;;;5098337;28;20454;-82
2023/08/21 03:51:32;;;;;;;20.63;19.27;;;;;;;;;;5097806;28;20449;-81
2023/08/21 03:53:59;;;;;;;21.93;20.30;;;;;;;;;;5097889;28;20465;-82
2023/08/21 03:56:26;;;;;;;19.90;18.80;;;;;;;;;;5098587;28;20490;-83
2023/08/21 03:58:55;;;;;;;20.77;19.47;;;;;;;;;;5098746;28;20441;-82
2023/08/21 04:01:22;;;;;;;20.53;19.20;;;;;;;;;;5097501;28;20514;-81
2023/08/21 04:03:49;;;;;;;20.43;19.13;;;;;;;;;;5098622;28;20471;-83
2023/08/21 04:06:16;;;;;;;20.40;19.10;;;;;;;;;;5098559;28;20451;-81
2023/08/21 04:08:43;;;;;;;20.10;18.90;;;;;;;;;;5098024;28;20426;-82
2023/08/21 04:11:11;;;;;;;20.70;19.37;;;;;;;;;;5097261;28;20463;-81
2023/08/21 04:13:38;;;;;;;19.70;18.40;;;;;;;;;;5098259;28;20469;-83
2023/08/21 04:16:06;;;;;;;20.10;18.70;;;;;;;;;;5098283;28;20444;-82
2023/08/21 04:18:33;;;;;;;20.20;19.00;;;;;;;;;;5098124;28;20444;-83
2023/08/21 04:21:01;;;;;;;20.37;18.90;;;;;;;;;;5097774;28;20815;-83
2023/08/21 04:23:28;;;;;;;19.20;17.83;;;;;;;;;;5097797;28;20460;-83
2023/08/21 04:25:55;;;;;;;20.13;18.60;;;;;;;;;;5097838;28;20504;-81
2023/08/21 04:28:22;;;;;;;21.67;19.40;;;;;;;;;;5097937;28;20452;-82
2023/08/21 04:30:49;;;;;;;19.67;18.47;;;;;;;;;;5097601;28;20492;-81
2023/08/21 04:33:17;;;;;;;21.00;19.50;;;;;;;;;;5098060;28;20483;-82
2023/08/21 04:35:44;;;;;;;20.63;19.30;;;;;;;;;;5103174;28;20444;-85
2023/08/21 04:38:11;;;;;;;20.73;19.20;;;;;;;;;;5103304;28;20815;-85
2023/08/21 04:40:38;;;;;;;20.23;18.90;;;;;;;;;;5100699;28;20483;-81
2023/08/21 04:43:05;;;;;;;20.13;18.93;;;;;;;;;;5097843;28;20443;-83
2023/08/21 04:45:33;;;;;;;19.23;18.13;;;;;;;;;;5097777;28;20478;-82
2023/08/21 04:48:00;;;;;;;19.60;18.30;;;;;;;;;;5100871;28;20431;-86
2023/08/21 04:50:28;;;;;;;19.27;18.27;;;;;;;;;;5102872;28;20494;-86
2023/08/21 04:52:55;;;;;;;21.00;19.50;;;;;;;;;;5103212;28;20477;-85
2023/08/21 04:55:22;;;;;;;20.87;19.50;;;;;;;;;;5102995;28;20856;-85
2023/08/21 04:57:49;;;;;;;19.80;18.60;;;;;;;;;;5102315;28;20426;-85
2023/08/21 05:00:17;;;;;;;20.60;19.30;;;;;;;;;;5102619;28;20434;-85
2023/08/21 05:02:44;;;;;;;20.20;19.00;;;;;;;;;;5101536;28;20462;-85
2023/08/21 05:05:11;;;;;;;20.20;19.10;;;;;;;;;;5105712;28;20408;-86
2023/08/21 05:07:39;;;;;;;20.03;18.83;;;;;;;;;;5106537;28;20455;-85
2023/08/21 05:10:07;;;;;;;19.77;18.27;;;;;;;;;;5105559;28;21277;-85
2023/08/21 05:12:34;;;;;;;19.30;18.20;;;;;;;;;;5106562;28;20447;-83
2023/08/21 05:15:02;;;;;;;19.93;18.63;;;;;;;;;;5107673;28;20543;-85
2023/08/21 05:17:29;;;;;;;19.03;17.67;;;;;;;;;;5107325;28;20516;-85
2023/08/21 05:19:56;;;;;;;19.90;18.70;;;;;;;;;;5106010;28;20439;-85
2023/08/21 05:22:23;;;;;;;19.50;18.40;;;;;;;;;;5106616;28;20475;-85
2023/08/21 05:24:52;;;;;;;19.63;18.53;;;;;;;;;;5107068;28;20918;-85
2023/08/21 05:27:19;;;;;;;19.53;18.43;;;;;;;;;;5106690;28;20453;-85
2023/08/21 05:29:46;;;;;;;20.20;18.90;;;;;;;;;;5105466;28;20459;-85
2023/08/21 05:32:13;;;;;;;20.03;18.83;;;;;;;;;;5105801;28;20468;-85
2023/08/21 05:34:40;;;;;;;20.10;18.83;;;;;;;;;;5094977;28;20836;-85
2023/08/21 05:37:07;;;;;;;19.67;18.57;;;;;;;;;;5085711;28;20456;-85
2023/08/21 05:39:35;;;;;;;20.13;19.03;;;;;;;;;;5085851;28;20491;-86
2023/08/21 05:42:03;;;;;;;20.07;18.87;;;;;;;;;;5085121;28;20544;-85
2023/08/21 05:44:30;;;;;;;19.70;18.40;;;;;;;;;;5085242;28;20514;-86
2023/08/21 05:46:58;;;;;;;19.40;18.30;;;;;;;;;;5085034;28;20397;-86
2023/08/21 05:49:25;;;;;;;20.10;18.90;;;;;;;;;;5085525;28;20821;-85
2023/08/21 05:51:53;;;;;;;20.23;18.93;;;;;;;;;;5084574;28;20433;-86
2023/08/21 05:54:20;;;;;;;20.00;18.60;;;;;;;;;;5085239;28;20442;-86
2023/08/21 05:56:47;;;;;;;19.73;18.53;;;;;;;;;;5085025;28;20445;-86
2023/08/21 05:59:28;;;;;;;19.80;18.70;;;;;;;;;;5084911;28;20430;-86
2023/08/21 06:01:55;;;;;;;20.00;18.70;;;;;;;;;;5084258;28;20929;-85
2023/08/21 06:04:22;;;;;;;20.23;18.77;;;;;;;;;;5085191;28;20470;-85
2023/08/21 06:06:49;;;;;;;19.50;18.30;;;;;;;;;;5084964;28;20435;-85
2023/08/21 06:09:17;;;;;;;19.30;18.10;;;;;;;;;;5085021;28;20428;-86
2023/08/21 06:11:44;;;;;;;19.60;18.47;;;;;;;;;;5084118;28;20536;-86
2023/08/21 06:14:13;;;;;;;18.70;17.60;;;;;;;;;;5084404;28;20421;-85
2023/08/21 06:16:43;;;;;;;19.50;18.30;;;;;;;;;;5083845;28;20421;-85
2023/08/21 06:19:10;;;;;;;19.93;18.60;;;;;;;;;;5084793;28;20429;-85
2023/08/21 06:21:38;;;;;;;20.30;19.00;;;;;;;;;;5084042;28;20416;-85
2023/08/21 06:24:05;;;;;;;19.67;18.20;;;;;;;;;;5084774;28;20807;-85
2023/08/21 06:26:32;;;;;;;19.50;18.30;;;;;;;;;;5084398;28;20457;-86
2023/08/21 06:28:59;;;;;;;18.90;17.80;;;;;;;;;;5084578;28;20776;-85
2023/08/21 06:31:26;;;;;;;20.37;18.97;;;;;;;;;;5084140;28;20502;-85
2023/08/21 06:33:57;;;;;;;19.87;18.60;;;;;;;;;;5085456;28;20472;-85
2023/08/21 06:36:24;;;;;;;19.90;18.70;;;;;;;;;;5102906;28;20415;-86
2023/08/21 06:38:51;;;;;;;21.27;19.60;;;;;;;;;;5094871;28;20494;-85
2023/08/21 06:41:18;;;;;;;19.80;18.70;;;;;;;;;;5102283;28;20441;-86
2023/08/21 06:43:45;;;;;;;19.53;18.40;;;;;;;;;;5089643;28;20472;-86
2023/08/21 06:46:12;;;;;;;21.00;19.40;;;;;;;;;;5101385;28;20433;-86
2023/08/21 06:48:41;;;;;;;20.33;18.73;;;;;;;;;;5099651;28;20852;-86
2023/08/21 06:51:10;;;;;;;20.63;19.07;;;;;;;;;;5100256;28;20976;-86
2023/08/21 06:53:37;;;;;;;20.27;19.10;;;;;;;;;;5099996;28;20448;-87
2023/08/21 06:56:04;;;;;;;21.00;19.70;;;;;;;;;;5100574;28;21009;-86
2023/08/21 06:58:31;;;;;;;20.67;19.57;;;;;;;;;;5099897;28;20798;-87
2023/08/21 07:00:58;;;;;;;21.17;19.87;;;;;;;;;;5096719;28;21320;-87
2023/08/21 07:03:25;;;;;;;20.80;19.57;;;;;;;;;;5098156;28;20456;-87
2023/08/21 07:05:56;;;;;;;21.17;19.80;;;;;;;;;;5098160;28;20458;-88
2023/08/21 07:08:25;;;;;;;21.13;19.93;;;;;;;;;;5097294;28;20452;-88
2023/08/21 07:10:52;;;;;;;21.50;20.37;;;;;;;;;;5095200;28;20492;-86
2023/08/21 07:13:19;;;;;;;22.30;20.87;;;;;;;;;;5099516;28;20465;-87
2023/08/21 07:15:47;;;;;;;22.30;20.90;;;;;;;;;;5100601;28;20428;-84
2023/08/21 07:18:14;;;;;;;21.97;20.00;;;;;;;;;;5101505;28;20460;-86
2023/08/21 07:20:41;;;;;;;21.77;20.57;;;;;;;;;;5096916;28;20407;-85
2023/08/21 07:23:08;;;;;;;21.20;19.93;;;;;;;;;;5098122;28;20451;-84
2023/08/21 07:25:37;;;;;;;21.53;20.10;;;;;;;;;;5099967;28;20445;-86
2023/08/21 07:28:04;;;;;;;21.17;19.97;;;;;;;;;;5099614;28;20407;-86
2023/08/21 07:30:31;;;;;;;21.47;20.37;;;;;;;;;;5099199;28;20482;-87
2023/08/21 07:32:58;;;;;;;21.50;20.10;;;;;;;;;;5096532;28;20432;-85
2023/08/21 07:35:25;;;;;;;21.17;19.83;;;;;;;;;;5100080;28;20445;-87
2023/08/21 07:37:52;;;;;;;21.17;19.80;;;;;;;;;;5100098;28;20441;-86
2023/08/21 07:40:19;;;;;;;21.37;20.00;;;;;;;;;;5102338;28;20441;-86
2023/08/21 07:42:48;;;;;;;21.67;20.37;;;;;;;;;;5100004;28;20811;-88
2023/08/21 07:45:15;;;;;;;21.40;20.00;;;;;;;;;;5095915;28;20437;-89
2023/08/21 07:47:42;;;;;;;22.43;21.10;;;;;;;;;;5097599;28;20449;-87
2023/08/21 07:50:10;;;;;;;21.93;20.63;;;;;;;;;;5095692;28;20445;-88
2023/08/21 07:52:38;;;;;;;22.83;21.43;;;;;;;;;;5097972;28;20476;-88
2023/08/21 07:55:05;;;;;;;21.67;20.20;;;;;;;;;;5097093;28;20434;-88
2023/08/21 07:57:32;;;;;;;22.27;20.60;;;;;;;;;;5099854;28;20452;-83
2023/08/21 08:00:00;;;;;;;22.40;20.90;;;;;;;;;;5102418;28;20449;-82
2023/08/21 08:02:28;;;;;;;23.10;21.70;;;;;;;;;;5101542;28;20465;-83
2023/08/21 08:04:55;;;;;;;23.30;21.73;;;;;;;;;;5099605;28;20420;-87
2023/08/21 08:07:23;;;;;;;22.30;20.80;;;;;;;;;;5102333;28;20412;-88
2023/08/21 08:09:51;;;;;;;21.80;20.40;;;;;;;;;;5098347;28;20448;-86
2023/08/21 08:12:18;;;;;;;22.57;21.07;;;;;;;;;;5096954;28;20455;-87
2023/08/21 08:14:45;;;;;;;21.83;20.53;;;;;;;;;;5097650;28;20419;-87
2023/08/21 08:17:13;;;;;;;22.90;21.30;;;;;;;;;;5097645;28;20407;-87
2023/08/21 08:19:40;;;;;;;21.27;20.03;;;;;;;;;;5097611;28;20453;-87
2023/08/21 08:22:07;;;;;;;21.60;20.20;;;;;;;;;;5097309;28;20465;-86
2023/08/21 08:24:34;;;;;;;22.93;21.10;;;;;;;;;;5098827;28;20445;-86
2023/08/21 08:27:01;;;;;;;22.40;21.10;;;;;;;;;;5098701;28;20818;-86
2023/08/21 08:29:28;;;;;;;21.93;20.53;;;;;;;;;;5098174;28;20461;-87
2023/08/21 08:31:55;;;;;;;22.70;21.30;;;;;;;;;;5097354;28;20463;-87
2023/08/21 08:34:24;;;;;;;21.80;20.30;;;;;;;;;;5098053;28;20436;-86
2023/08/21 08:36:51;;;;;;;22.30;20.87;;;;;;;;;;5098803;28;20447;-86
2023/08/21 08:39:18;;;;;;;22.40;20.60;;;;;;;;;;5086758;28;20448;-86
2023/08/21 08:41:50;;;;;;;21.97;20.47;;;;;;;;;;5096639;28;20838;-86
2023/08/21 08:44:18;;;;;;;23.63;21.93;;;;;;;;;;5089191;28;20515;-87
2023/08/21 08:46:45;;;;;;;22.87;21.27;;;;;;;;;;5098307;28;20756;-87
2023/08/21 08:49:12;;;;;;;22.93;21.30;;;;;;;;;;5097437;28;20433;-87
2023/08/21 08:51:41;;;;;;;22.67;21.10;;;;;;;;;;5097596;28;20548;-86
2023/08/21 08:54:11;;;;;;;22.10;20.43;;;;;;;;;;5098070;28;20511;-87
2023/08/21 08:56:38;;;;;;;23.20;21.73;;;;;;;;;;5098131;28;20932;-86
2023/08/21 08:59:07;;;;;;;23.27;21.57;;;;;;;;;;5098434;28;20420;-86
2023/08/21 09:01:34;;;;;;;23.33;21.20;;;;;;;;;;5088841;28;20454;-87
2023/08/21 09:04:01;;;;;;;23.20;21.50;;;;;;;;;;5095789;28;20435;-86
2023/08/21 09:06:29;;;;;;;23.50;21.77;;;;;;;;;;5086332;28;20450;-87
2023/08/21 09:08:58;;;;;;;23.03;21.27;;;;;;;;;;5078689;28;20457;-86
2023/08/21 09:11:25;;;;;;;22.83;21.03;;;;;;;;;;5078160;28;20432;-86
2023/08/21 09:13:52;;;;;;;23.00;21.40;;;;;;;;;;5077635;28;20444;-87
2023/08/21 09:16:19;;;;;;;23.70;22.00;;;;;;;;;;5076960;28;20805;-86
2023/08/21 09:18:50;;;;;;;22.77;21.23;;;;;;;;;;5076987;28;20840;-85
2023/08/21 09:21:18;;;;;;;22.60;21.23;;;;;;;;;;5109151;28;20464;-84
2023/08/21 09:23:45;;;;;;;24.10;22.20;;;;;;;;;;5122348;28;20464;-85
2023/08/21 09:26:20;;;;;;;23.67;21.90;;;;;;;;;;5116796;28;20486;-89
2023/08/21 09:28:47;;;;;;;21.77;20.43;;;;;;;;;;5109594;28;20472;-86
2023/08/21 09:31:14;;;;;;;22.80;21.03;;;;;;;;;;5096022;27;20534;-87
2023/08/21 09:33:41;;;;;;;22.60;21.03;;;;;;;;;;5096587;28;20496;-82
2023/08/21 09:36:10;;;;;;;22.03;20.63;;;;;;;;;;5085940;28;20450;-83
2023/08/21 09:38:39;;;;;;;23.20;21.40;;;;;;;;;;5079536;28;20481;-88
2023/08/21 09:41:07;;;;;;;20.97;19.67;;;;;;;;;;5073495;28;20441;-89
2023/08/21 09:43:42;;;;;;;21.00;19.50;;;;;;;;;;5073437;28;20477;-87
2023/08/21 09:46:09;;;;;;;21.80;20.37;;;;;;;;;;5073627;28;20426;-87
2023/08/21 09:48:37;;;;;;;22.63;21.23;;;;;;;;;;5073067;28;20832;-87
2023/08/21 09:51:05;;;;;;;21.60;20.10;;;;;;;;;;5075595;28;20977;-87
2023/08/21 09:53:32;;;;;;;21.90;20.40;;;;;;;;;;5080059;28;20474;-81
2023/08/21 09:56:03;;;;;;;22.27;20.60;;;;;;;;;;5081167;28;20457;-87
2023/08/21 09:58:30;;;;;;;21.97;20.53;;;;;;;;;;5081227;28;20469;-86
2023/08/21 10:01:02;;;;;;;23.17;21.43;;;;;;;;;;5080885;28;20473;-86
2023/08/21 10:03:30;;;;;;;23.70;22.00;;;;;;;;;;5097171;28;20533;-87
2023/08/21 10:05:59;;;;;;;23.53;21.93;;;;;;;;;;5102313;28;20426;-83
2023/08/21 10:08:27;;;;;;;22.23;20.90;;;;;;;;;;5102072;28;20424;-87
2023/08/21 10:10:55;;;;;;;23.07;21.67;;;;;;;;;;5101929;28;20448;-86
2023/08/21 10:13:22;;;;;;;23.37;21.87;;;;;;;;;;5100665;28;20904;-86
2023/08/21 10:15:49;;;;;;;22.50;21.00;;;;;;;;;;5099772;28;20448;-86
2023/08/21 10:18:23;;;;;;;22.60;21.00;;;;;;;;;;5101467;28;20483;-85
2023/08/21 10:20:50;;;;;;;23.23;21.60;;;;;;;;;;5104866;28;20453;-84
2023/08/21 10:23:28;;;;;;;23.13;21.03;;;;;;;;;;5091077;28;20901;-85
2023/08/21 10:25:56;;;;;;;24.53;22.80;;;;;;;;;;5102377;28;20430;-83
2023/08/21 10:28:23;;;;;;;23.80;22.20;;;;;;;;;;5105378;28;20445;-85
2023/08/21 10:30:51;;;;;;;23.03;21.53;;;;;;;;;;5105619;28;20459;-84
2023/08/21 10:33:19;;;;;;;22.77;21.27;;;;;;;;;;5113384;28;20462;-85
2023/08/21 10:35:48;;;;;;;24.10;22.30;;;;;;;;;;5124666;28;20436;-85
2023/08/21 10:38:17;;;;;;;22.50;21.00;;;;;;;;;;5121143;27;20426;-86
2023/08/21 10:40:59;;;;;;;23.40;21.80;;;;;;;;;;5103650;28;20449;-84
2023/08/21 10:43:39;;;;;;;22.30;20.90;;;;;;;;;;5104577;28;20461;-84
2023/08/21 10:46:06;;;;;;;22.27;20.83;;;;;;;;;;5104212;28;20453;-84
2023/08/21 10:48:33;;;;;;;23.53;21.87;;;;;;;;;;5103934;28;20456;-84
2023/08/21 10:51:03;;;;;;;23.07;21.50;;;;;;;;;;5118082;28;20467;-84
2023/08/21 10:53:30;;;;;;;23.90;22.30;;;;;;;;;;5101267;28;20464;-84
2023/08/21 10:55:57;;;;;;;22.97;21.37;;;;;;;;;;5124019;28;20429;-84
2023/08/21 10:58:24;;;;;;;23.00;21.20;;;;;;;;;;5122271;28;20444;-85
2023/08/21 11:00:57;;;;;;;23.47;21.57;;;;;;;;;;5123372;27;20430;-85
2023/08/21 11:03:24;;;;;;;23.50;21.70;;;;;;;;;;5123957;28;20835;-84
2023/08/21 11:06:03;;;;;;;23.30;21.60;;;;;;;;;;5109593;28;20452;-83
2023/08/21 11:08:30;;;;;;;22.80;21.30;;;;;;;;;;5102384;28;20425;-86
2023/08/21 11:10:57;;;;;;;22.87;21.30;;;;;;;;;;5096259;28;20448;-84
2023/08/21 11:13:25;;;;;;;23.00;21.20;;;;;;;;;;5101974;28;20537;-84
2023/08/21 11:15:59;;;;;;;23.53;21.93;;;;;;;;;;5101230;28;20437;-84
2023/08/21 11:18:31;;;;;;;23.07;21.40;;;;;;;;;;5087482;28;20436;-84
2023/08/21 11:21:06;;;;;;;22.90;21.30;;;;;;;;;;5081058;28;20446;-84
2023/08/21 11:23:36;;;;;;;22.07;20.67;;;;;;;;;;5080831;28;21098;-84
2023/08/21 11:26:03;;;;;;;23.20;21.60;;;;;;;;;;5081997;28;20473;-84
2023/08/21 11:28:31;;;;;;;22.83;21.27;;;;;;;;;;5087981;28;20460;-85
2023/08/21 11:30:59;;;;;;;22.40;21.00;;;;;;;;;;5089907;28;20461;-84
2023/08/21 11:33:27;;;;;;;22.77;21.37;;;;;;;;;;5082605;28;20485;-84
2023/08/21 11:35:54;;;;;;;23.43;21.47;;;;;;;;;;5081323;28;20413;-83
2023/08/21 11:38:23;;;;;;;23.40;21.70;;;;;;;;;;5082338;28;20429;-84
2023/08/21 11:40:53;;;;;;;23.23;21.43;;;;;;;;;;5082173;28;20905;-85
2023/08/21 11:43:20;;;;;;;23.67;21.97;;;;;;;;;;5082288;28;20473;-84
2023/08/21 11:45:47;;;;;;;23.10;21.40;;;;;;;;;;5081963;28;20431;-84
2023/08/21 11:48:15;;;;;;;23.57;22.00;;;;;;;;;;5082109;28;20445;-84
2023/08/21 11:50:42;;;;;;;24.07;22.27;;;;;;;;;;5082680;28;20468;-85
2023/08/21 11:53:10;;;;;;;23.33;21.40;;;;;;;;;;5082267;28;20490;-84
2023/08/21 11:55:40;;;;;;;22.97;21.40;;;;;;;;;;5082321;28;20915;-85
2023/08/21 11:58:07;;;;;;;24.30;22.00;;;;;;;;;;5082367;28;20438;-85
2023/08/21 12:00:34;;;;;;;23.43;21.83;;;;;;;;;;5081280;28;20454;-85
2023/08/21 12:03:06;;;;;;;25.50;23.07;;;;;;;;;;5082805;28;20444;-85
2023/08/21 12:05:33;;;;;;;22.87;21.33;;;;;;;;;;5082522;28;20446;-84
2023/08/21 12:08:00;;;;;;;21.73;20.47;;;;;;;;;;5082358;28;20480;-84
2023/08/21 12:10:28;;;;;;;23.67;21.77;;;;;;;;;;5081778;28;20460;-85
2023/08/21 12:12:57;;;;;;;22.67;21.07;;;;;;;;;;5081873;28;20490;-84
2023/08/21 12:15:24;;;;;;;23.30;21.63;;;;;;;;;;5081869;28;20481;-84
2023/08/21 12:17:51;;;;;;;22.97;21.37;;;;;;;;;;5081876;28;20435;-83
2023/08/21 12:20:18;;;;;;;22.17;20.77;;;;;;;;;;5088735;28;20473;-84
2023/08/21 12:22:45;;;;;;;22.40;20.67;;;;;;;;;;5101884;28;20991;-84
2023/08/21 12:25:13;;;;;;;23.57;21.97;;;;;;;;;;5101963;28;20436;-84
2023/08/21 12:27:40;;;;;;;23.50;21.90;;;;;;;;;;5108358;28;20514;-82
2023/08/21 12:30:09;;;;;;;22.90;20.83;;;;;;;;;;5116301;28;20951;-82
2023/08/21 12:32:36;;;;;;;22.43;20.67;;;;;;;;;;5116156;28;20863;-83
2023/08/21 12:35:04;;;;;;;23.03;21.50;;;;;;;;;;5117385;28;21113;-88
2023/08/21 12:37:31;;;;;;;23.40;21.80;;;;;;;;;;5099311;27;20491;-87
2023/08/21 12:39:58;;;;;;;21.80;20.30;;;;;;;;;;5097017;28;20485;-87
2023/08/21 12:42:25;;;;;;;21.30;19.90;;;;;;;;;;5097765;28;20460;-87
2023/08/21 12:44:52;;;;;;;22.77;20.90;;;;;;;;;;5090975;28;20438;-88
2023/08/21 12:47:21;;;;;;;22.07;20.67;;;;;;;;;;5077866;28;20461;-85
2023/08/21 12:49:48;;;;;;;23.13;21.37;;;;;;;;;;5077308;28;20427;-83
2023/08/21 12:52:15;;;;;;;23.50;21.90;;;;;;;;;;5079987;28;20492;-86
2023/08/21 12:54:42;;;;;;;23.50;21.87;;;;;;;;;;5079393;28;20454;-87
2023/08/21 12:57:11;;;;;;;22.93;21.43;;;;;;;;;;5076474;28;20449;-81
2023/08/21 12:59:38;;;;;;;23.53;21.63;;;;;;;;;;5077148;28;20462;-82
2023/08/21 13:02:05;;;;;;;23.43;21.60;;;;;;;;;;5094692;28;20431;-81
2023/08/21 13:04:33;;;;;;;23.57;21.87;;;;;;;;;;5095321;28;21000;-81
2023/08/21 13:07:01;;;;;;;23.67;21.90;;;;;;;;;;5094214;28;20426;-80
2023/08/21 13:09:28;;;;;;;22.63;21.07;;;;;;;;;;5094075;28;20427;-82
2023/08/21 13:11:55;;;;;;;22.70;21.10;;;;;;;;;;5091774;28;20445;-79
2023/08/21 13:14:22;;;;;;;22.47;20.87;;;;;;;;;;5093093;28;20448;-80
2023/08/21 13:16:50;;;;;;;22.77;21.33;;;;;;;;;;5093588;28;20481;-80
2023/08/21 13:19:17;;;;;;;23.33;21.67;;;;;;;;;;5092874;28;20445;-81
2023/08/21 13:21:45;;;;;;;23.40;21.90;;;;;;;;;;5093678;28;20450;-79
2023/08/21 13:24:12;;;;;;;24.00;22.20;;;;;;;;;;5094539;27;20448;-79
2023/08/21 13:26:39;;;;;;;22.67;21.17;;;;;;;;;;5098353;28;20434;-78
2023/08/21 13:29:07;;;;;;;22.77;21.37;;;;;;;;;;5099295;28;20456;-80
2023/08/21 13:31:34;;;;;;;22.50;21.03;;;;;;;;;;5098232;28;20472;-80
2023/08/21 13:34:01;;;;;;;23.90;22.13;;;;;;;;;;5098625;28;20804;-80
2023/08/21 13:36:29;;;;;;;23.00;21.37;;;;;;;;;;5098245;28;20936;-79
2023/08/21 13:38:57;;;;;;;23.30;21.60;;;;;;;;;;5097079;28;20441;-78
2023/08/21 13:41:24;;;;;;;23.47;21.97;;;;;;;;;;5097561;28;20472;-80
2023/08/21 13:43:51;;;;;;;22.97;21.57;;;;;;;;;;5099028;28;20988;-81
2023/08/21 13:46:19;;;;;;;23.17;21.67;;;;;;;;;;5099330;28;20451;-80
2023/08/21 13:48:46;;;;;;;24.43;22.70;;;;;;;;;;5099112;28;20448;-80
2023/08/21 13:51:13;;;;;;;23.20;21.53;;;;;;;;;;5098753;28;20423;-81
2023/08/21 13:53:40;;;;;;;24.60;22.63;;;;;;;;;;5099375;28;20484;-80
2023/08/21 13:56:08;;;;;;;24.83;22.90;;;;;;;;;;5099239;28;20963;-80
2023/08/21 13:58:35;;;;;;;23.47;21.80;;;;;;;;;;5099463;28;20451;-80
2023/08/21 14:01:03;;;;;;;23.47;22.10;;;;;;;;;;5098427;28;20435;-81
2023/08/21 14:03:30;;;;;;;23.53;22.03;;;;;;;;;;5098328;28;20468;-80
2023/08/21 14:05:57;;;;;;;23.60;21.90;;;;;;;;;;5098715;28;20968;-78
2023/08/21 14:08:24;;;;;;;24.13;22.30;;;;;;;;;;5096343;28;20445;-78
2023/08/21 14:10:51;;;;;;;24.40;22.80;;;;;;;;;;5095069;28;20419;-79
2023/08/21 14:13:20;;;;;;;23.27;21.53;;;;;;;;;;5094600;28;20994;-81
2023/08/21 14:15:47;;;;;;;24.03;22.37;;;;;;;;;;5099085;28;20440;-79
2023/08/21 14:18:14;;;;;;;24.47;22.57;;;;;;;;;;5091620;28;20461;-80